Time;durP1;ratioP1;P1;durP2;ratioP2;P2;SDS_P1;SDS_P2;PMS_P1;PMS_P2;Temp;Humidity;BMP_temperature;BMP_pressure;BME280_temperature;BME280_humidity;BME280_pressure;Samples;Min_cycle;Max_cycle;Signal;HPM_P1;HPM_P2
2022/05/02 00:00:53;;;;;;;7.20;5.18;;;10.10;99.90;;;;;;4993117;28;20129;-77
2022/05/02 00:03:20;;;;;;;6.75;5.43;;;10.10;99.90;;;;;;4992890;28;20519;-78
2022/05/02 00:05:47;;;;;;;7.07;5.25;;;10.10;99.90;;;;;;4993332;28;20129;-78
2022/05/02 00:08:14;;;;;;;7.38;5.30;;;9.90;99.90;;;;;;4992767;28;20125;-79
2022/05/02 00:10:43;;;;;;;7.68;5.50;;;10.00;99.90;;;;;;4992739;28;20523;-78
2022/05/02 00:13:10;;;;;;;7.30;5.35;;;9.90;99.90;;;;;;4992714;28;20496;-77
2022/05/02 00:15:38;;;;;;;8.68;6.15;;;9.90;99.90;;;;;;4992898;28;20134;-79
2022/05/02 00:18:07;;;;;;;7.68;5.15;;;9.70;99.90;;;;;;4992862;28;20065;-80
2022/05/02 00:20:37;;;;;;;7.07;5.10;;;9.50;99.90;;;;;;4992657;28;20061;-78
2022/05/02 00:23:07;;;;;;;9.55;5.28;;;9.30;99.90;;;;;;4992687;28;20467;-79
2022/05/02 00:25:35;;;;;;;7.07;5.15;;;9.00;99.90;;;;;;4993222;28;20129;-80
2022/05/02 00:28:04;;;;;;;7.32;5.20;;;9.10;99.90;;;;;;4992903;28;20456;-79
2022/05/02 00:30:32;;;;;;;8.00;4.93;;;9.40;99.90;;;;;;4992955;28;20564;-79
2022/05/02 00:33:00;;;;;;;7.90;5.35;;;9.20;99.90;;;;;;4995225;28;20471;-81
2022/05/02 00:35:27;;;;;;;7.80;5.50;;;9.20;99.90;;;;;;4996456;28;20132;-79
2022/05/02 00:37:54;;;;;;;8.68;6.30;;;9.30;99.90;;;;;;4996456;28;20082;-76
2022/05/02 00:40:21;;;;;;;8.63;5.95;;;9.50;99.90;;;;;;4996571;28;20134;-80
2022/05/02 00:42:49;;;;;;;7.35;5.55;;;9.40;99.90;;;;;;4996506;28;20145;-79
2022/05/02 00:45:20;;;;;;;8.43;5.72;;;9.60;99.90;;;;;;4996249;28;20140;-81
2022/05/02 00:47:52;;;;;;;8.15;6.07;;;9.40;99.90;;;;;;4988447;28;20555;-79
2022/05/02 00:50:33;;;;;;;7.30;5.03;;;9.00;99.90;;;;;;4996465;28;20137;-79
2022/05/02 00:53:01;;;;;;;8.77;5.80;;;9.10;99.90;;;;;;4996263;28;20492;-80
2022/05/02 00:55:30;;;;;;;7.13;5.40;;;9.10;99.90;;;;;;4996117;28;20120;-79
2022/05/02 00:57:58;;;;;;;8.57;5.55;;;9.30;99.90;;;;;;4996187;28;20081;-79
2022/05/02 01:00:27;;;;;;;9.77;5.85;;;9.30;99.90;;;;;;4996404;28;20141;-80
2022/05/02 01:02:55;;;;;;;7.18;5.75;;;9.20;99.90;;;;;;4995891;28;20563;-78
2022/05/02 01:05:22;;;;;;;7.22;5.70;;;9.10;99.90;;;;;;4995864;28;20453;-79
2022/05/02 01:07:48;;;;;;;7.65;5.40;;;9.20;99.90;;;;;;4996009;28;20465;-79
2022/05/02 01:10:17;;;;;;;8.00;5.55;;;9.10;99.90;;;;;;4995995;28;20141;-79
2022/05/02 01:12:46;;;;;;;7.70;5.55;;;9.20;99.90;;;;;;4995820;28;20488;-80
2022/05/02 01:15:14;;;;;;;7.70;5.85;;;9.40;99.90;;;;;;4996076;28;20050;-79
2022/05/02 01:17:42;;;;;;;8.23;5.95;;;9.30;99.90;;;;;;4995967;28;20088;-79
2022/05/02 01:20:12;;;;;;;7.10;5.60;;;9.10;99.90;;;;;;4995505;28;20077;-78
2022/05/02 01:22:40;;;;;;;10.25;5.95;;;9.10;99.90;;;;;;4996099;28;20141;-79
2022/05/02 01:25:08;;;;;;;7.40;5.65;;;9.20;99.90;;;;;;4995643;28;20050;-80
2022/05/02 01:27:35;;;;;;;9.05;6.10;;;9.00;99.90;;;;;;4995727;28;20137;-81
2022/05/02 01:30:02;;;;;;;8.50;5.47;;;8.80;99.90;;;;;;4995877;28;20496;-78
2022/05/02 01:32:29;;;;;;;8.40;5.65;;;8.80;99.90;;;;;;4995673;28;20137;-78
2022/05/02 01:34:56;;;;;;;7.75;6.15;;;8.70;99.90;;;;;;4995595;28;20089;-79
2022/05/02 01:37:25;;;;;;;8.00;5.88;;;8.40;99.90;;;;;;4995591;28;20081;-79
2022/05/02 01:39:52;;;;;;;9.93;6.55;;;8.20;99.90;;;;;;4995421;28;20054;-78
2022/05/02 01:42:19;;;;;;;8.70;6.15;;;8.40;99.90;;;;;;4995891;28;20134;-79
2022/05/02 01:44:46;;;;;;;8.40;6.07;;;8.40;99.90;;;;;;4994990;28;20085;-80
2022/05/02 01:47:13;;;;;;;8.82;6.72;;;8.20;99.90;;;;;;4995369;28;20125;-79
2022/05/02 01:49:40;;;;;;;9.10;6.80;;;8.20;99.90;;;;;;4995748;28;20081;-78
2022/05/02 01:52:08;;;;;;;9.70;6.82;;;8.50;99.90;;;;;;4995142;28;20085;-78
2022/05/02 01:54:36;;;;;;;10.05;7.15;;;8.60;99.90;;;;;;4995041;28;20149;-79
2022/05/02 01:57:04;;;;;;;10.05;6.85;;;8.50;99.90;;;;;;4995104;28;20133;-79
2022/05/02 01:59:31;;;;;;;9.35;7.22;;;8.30;99.90;;;;;;4994868;28;20133;-78
2022/05/02 02:01:58;;;;;;;10.85;7.88;;;8.30;99.90;;;;;;4994836;28;20062;-80
2022/05/02 02:07:10;;;;;;;11.70;7.65;;;8.50;99.90;;;;;;5014407;28;20502;-81
2022/05/02 02:09:38;;;;;;;9.18;7.50;;;8.60;99.90;;;;;;5014534;28;20128;-79
2022/05/02 02:12:07;;;;;;;10.38;7.72;;;8.70;99.90;;;;;;5014637;28;20125;-77
2022/05/02 02:14:34;;;;;;;10.23;7.32;;;8.80;99.90;;;;;;5014836;28;20132;-79
2022/05/02 02:17:01;;;;;;;10.27;7.70;;;8.90;99.90;;;;;;5014160;28;20467;-78
2022/05/02 02:19:28;;;;;;;12.15;8.15;;;8.90;99.90;;;;;;5014129;28;20129;-79
2022/05/02 02:22:16;;;;;;;11.30;7.80;;;8.80;99.90;;;;;;5014217;28;20128;-80
2022/05/02 02:24:45;;;;;;;10.25;8.20;;;8.70;99.90;;;;;;5013962;28;20046;-80
2022/05/02 02:27:13;;;;;;;11.48;8.32;;;8.80;99.90;;;;;;5014284;28;20400;-80
2022/05/02 02:29:40;;;;;;;10.43;8.00;;;8.80;99.90;;;;;;5014242;28;20464;-78
2022/05/02 02:32:08;;;;;;;12.52;8.02;;;8.70;99.90;;;;;;5013825;28;20555;-79
2022/05/02 02:34:35;;;;;;;10.00;7.47;;;8.70;99.90;;;;;;5013799;28;20652;-78
2022/05/02 02:37:02;;;;;;;10.15;7.20;;;8.70;99.90;;;;;;5011594;28;20069;-77
2022/05/02 02:39:29;;;;;;;9.48;7.13;;;8.80;99.90;;;;;;5013182;28;20050;-79
2022/05/02 02:41:58;;;;;;;9.98;7.00;;;8.80;99.90;;;;;;5013911;28;20495;-79
2022/05/02 02:44:25;;;;;;;10.63;7.82;;;8.70;99.90;;;;;;5013683;28;20049;-78
2022/05/02 02:46:52;;;;;;;10.13;7.53;;;8.60;99.90;;;;;;5013552;28;20132;-80
2022/05/02 02:49:19;;;;;;;9.68;7.70;;;8.70;99.90;;;;;;5013706;28;20129;-78
2022/05/02 02:51:46;;;;;;;10.88;7.88;;;8.80;99.90;;;;;;5005685;28;20133;-80
2022/05/02 02:54:13;;;;;;;10.73;7.57;;;8.80;99.90;;;;;;5013884;28;20129;-78
2022/05/02 02:56:40;;;;;;;9.77;7.10;;;8.80;99.90;;;;;;5013540;28;20136;-78
2022/05/02 02:59:09;;;;;;;10.68;7.70;;;9.00;99.90;;;;;;5013318;28;20136;-79
2022/05/02 03:01:37;;;;;;;11.15;8.40;;;9.00;99.90;;;;;;5013095;28;20497;-78
2022/05/02 03:06:01;;;;;;;11.65;8.63;;;8.70;99.90;;;;;;5013454;28;20452;-79
2022/05/02 03:06:51;;;;;;;11.50;8.55;;;8.30;99.90;;;;;;5013337;28;20046;-79
2022/05/02 03:09:18;;;;;;;11.88;8.88;;;8.40;99.90;;;;;;5013829;28;20046;-78
2022/05/02 03:11:45;;;;;;;12.27;9.50;;;8.40;99.90;;;;;;5013617;28;20089;-77
2022/05/02 03:14:13;;;;;;;12.80;9.38;;;8.20;99.90;;;;;;5013083;28;20476;-78
2022/05/02 03:16:40;;;;;;;11.05;8.70;;;8.30;99.90;;;;;;5013200;28;20133;-79
2022/05/02 03:19:08;;;;;;;13.13;9.65;;;8.50;99.90;;;;;;5013157;28;20077;-79
2022/05/02 03:21:35;;;;;;;12.35;9.02;;;8.60;99.90;;;;;;5013106;28;20140;-78
2022/05/02 03:24:02;;;;;;;11.75;8.95;;;8.60;99.90;;;;;;5012980;28;20132;-78
2022/05/02 03:26:29;;;;;;;11.88;9.15;;;8.50;99.90;;;;;;5013164;28;20073;-80
2022/05/02 03:28:56;;;;;;;11.63;8.93;;;8.50;99.90;;;;;;5012891;28;20475;-78
2022/05/02 03:31:26;;;;;;;11.48;8.43;;;8.50;99.90;;;;;;5012992;28;20460;-78
2022/05/02 03:33:53;;;;;;;11.93;8.75;;;8.60;99.90;;;;;;5012787;28;20479;-78
2022/05/02 03:36:20;;;;;;;11.30;8.88;;;8.60;99.90;;;;;;5012622;28;20085;-78
2022/05/02 03:38:47;;;;;;;11.75;8.55;;;8.70;99.90;;;;;;5012937;28;20475;-78
2022/05/02 03:41:14;;;;;;;13.45;10.10;;;8.70;99.90;;;;;;5012551;28;20141;-79
2022/05/02 03:43:42;;;;;;;14.52;10.10;;;8.30;99.90;;;;;;5012766;28;20121;-79
2022/05/02 03:46:09;;;;;;;12.07;9.30;;;8.10;99.90;;;;;;5012719;28;20487;-78
2022/05/02 03:48:38;;;;;;;12.05;9.07;;;8.20;99.90;;;;;;5012749;28;20081;-78
2022/05/02 03:51:05;;;;;;;12.43;9.13;;;8.20;99.90;;;;;;5012776;28;20077;-80
2022/05/02 03:53:32;;;;;;;13.18;9.57;;;8.00;99.90;;;;;;5012783;28;20132;-77
2022/05/02 03:55:59;;;;;;;11.23;8.93;;;8.10;99.90;;;;;;5012773;28;20466;-79
2022/05/02 03:58:26;;;;;;;12.02;9.05;;;8.30;99.90;;;;;;5013012;28;20149;-77
2022/05/02 04:00:53;;;;;;;11.85;9.05;;;8.30;99.90;;;;;;5012440;28;20137;-78
2022/05/02 04:03:20;;;;;;;11.68;9.00;;;8.20;99.90;;;;;;5012552;28;20080;-78
2022/05/02 04:05:49;;;;;;;11.20;8.50;;;8.30;99.90;;;;;;5012401;28;20145;-79
2022/05/02 04:08:16;;;;;;;13.15;9.02;;;8.10;99.90;;;;;;5012119;28;20155;-80
2022/05/02 04:10:43;;;;;;;12.18;9.50;;;7.80;99.90;;;;;;5012499;28;20471;-80
2022/05/02 04:13:10;;;;;;;15.07;10.27;;;7.40;99.90;;;;;;5012494;28;20458;-80
2022/05/02 04:15:38;;;;;;;11.68;8.90;;;7.40;99.90;;;;;;5012554;28;20140;-79
2022/05/02 04:18:06;;;;;;;13.88;9.00;;;7.60;99.90;;;;;;5012492;28;20507;-79
2022/05/02 04:20:33;;;;;;;12.23;8.15;;;7.50;99.90;;;;;;5012638;28;20092;-78
2022/05/02 04:23:01;;;;;;;11.13;8.60;;;7.50;99.90;;;;;;5012381;28;20089;-78
2022/05/02 04:25:29;;;;;;;11.85;8.25;;;7.40;99.90;;;;;;5012309;28;20150;-78
2022/05/02 04:27:56;;;;;;;10.13;7.57;;;7.50;99.90;;;;;;5012560;28;20463;-78
2022/05/02 04:30:23;;;;;;;12.20;8.50;;;7.80;99.90;;;;;;5012290;28;20134;-77
2022/05/02 04:32:50;;;;;;;12.45;9.05;;;7.90;99.90;;;;;;5012193;28;20133;-77
2022/05/02 04:35:17;;;;;;;11.85;8.65;;;7.90;99.90;;;;;;5012102;28;20136;-77
2022/05/02 04:37:44;;;;;;;11.73;8.70;;;7.80;99.90;;;;;;5012289;28;20129;-77
2022/05/02 04:40:13;;;;;;;12.02;8.93;;;7.70;99.90;;;;;;5012290;28;20053;-79
2022/05/02 04:42:40;;;;;;;13.93;9.77;;;7.60;99.90;;;;;;5012235;28;20124;-79
2022/05/02 04:45:09;;;;;;;12.85;9.45;;;7.70;99.90;;;;;;5012130;28;20136;-77
2022/05/02 04:47:36;;;;;;;13.00;9.45;;;7.70;99.90;;;;;;5012204;28;20084;-79
2022/05/02 04:50:04;;;;;;;13.63;10.10;;;8.00;99.90;;;;;;5012189;28;20084;-77
2022/05/02 04:52:31;;;;;;;14.15;10.18;;;8.00;99.90;;;;;;5012142;28;20133;-77
2022/05/02 04:54:58;;;;;;;13.32;10.18;;;8.00;99.90;;;;;;5012242;28;20132;-77
2022/05/02 04:57:27;;;;;;;13.55;9.77;;;8.20;99.90;;;;;;5012106;28;20136;-79
2022/05/02 04:59:54;;;;;;;12.55;9.60;;;8.20;99.90;;;;;;5011896;28;20435;-79
2022/05/02 05:02:21;;;;;;;13.50;9.88;;;8.10;99.90;;;;;;4992781;28;20285;-78
2022/05/02 05:04:48;;;;;;;13.60;9.40;;;8.10;99.90;;;;;;4991908;28;20129;-78
2022/05/02 05:07:15;;;;;;;13.60;9.23;;;8.10;99.90;;;;;;4992534;28;20129;-79
2022/05/02 05:09:43;;;;;;;14.02;9.82;;;8.20;99.90;;;;;;4992401;28;20467;-78
2022/05/02 05:12:26;;;;;;;14.23;10.40;;;8.30;99.90;;;;;;4992240;28;20079;-77
2022/05/02 05:18:08;;;;;;;15.10;10.73;;;8.20;99.90;;;;;;4992395;28;20504;-77
2022/05/02 05:20:46;;;;;;;17.05;11.30;;;8.00;99.90;;;;;;4995397;28;20046;-79
2022/05/02 05:23:41;;;;;;;14.68;10.77;;;7.90;99.90;;;;;;4995609;28;20141;-78
2022/05/02 05:26:16;;;;;;;13.93;10.32;;;7.70;99.90;;;;;;4995743;28;20090;-78
2022/05/02 05:28:57;;;;;;;;;;;7.80;99.90;;;;;;4996041;28;20145;-80
2022/05/02 05:31:35;;;;;;;14.27;10.43;;;7.80;99.90;;;;;;4995744;28;19921;-80
2022/05/02 05:34:10;;;;;;;14.40;10.20;;;7.90;99.90;;;;;;4995513;28;20050;-79
2022/05/02 05:37:03;;;;;;;;;;;8.00;99.90;;;;;;4995926;28;20050;-78
2022/05/02 05:39:44;;;;;;;22.80;15.13;;;8.20;99.90;;;;;;4992134;28;20383;-79
2022/05/02 05:42:18;;;;;;;21.52;13.60;;;8.40;99.90;;;;;;4995282;28;20085;-79
2022/05/02 05:44:59;;;;;;;16.58;11.80;;;8.40;99.90;;;;;;4995197;28;20514;-78
2022/05/02 05:47:45;;;;;;;16.15;10.98;;;8.40;99.90;;;;;;4995217;28;20137;-77
2022/05/02 05:50:22;;;;;;;15.73;11.13;;;8.30;99.90;;;;;;4995362;28;20043;-79
2022/05/02 05:53:08;;;;;;;16.20;10.98;;;8.20;99.90;;;;;;4995126;28;20070;-77
2022/05/02 05:56:08;;;;;;;14.82;10.80;;;8.30;99.90;;;;;;4995093;28;20086;-80
2022/05/02 05:58:47;;;;;;;14.05;10.60;;;8.40;99.90;;;;;;4994951;28;20058;-79
2022/05/02 06:01:20;;;;;;;14.38;10.23;;;8.50;99.90;;;;;;4994716;28;20062;-78
2022/05/02 06:04:03;;;;;;;15.25;10.60;;;8.60;99.90;;;;;;4995048;28;20145;-80
2022/05/02 06:06:31;;;;;;;13.32;10.02;;;8.60;99.90;;;;;;4994967;28;20074;-77
2022/05/02 06:08:59;;;;;;;16.35;11.73;;;8.70;99.90;;;;;;4995204;28;20058;-77
2022/05/02 06:11:27;;;;;;;14.38;10.55;;;8.70;99.90;;;;;;4994781;28;20057;-79
2022/05/02 06:13:58;;;;;;;16.67;11.52;;;8.70;99.90;;;;;;4994753;28;20138;-77
2022/05/02 06:19:17;;;;;;;16.33;11.57;;;8.80;99.90;;;;;;4994749;28;20093;-77
2022/05/02 06:21:45;;;;;;;14.65;10.88;;;8.90;99.90;;;;;;4994754;28;20137;-77
2022/05/02 06:24:15;;;;;;;14.77;10.63;;;9.00;99.90;;;;;;4994620;28;20129;-77
2022/05/02 06:26:46;;;;;;;16.42;11.13;;;9.10;99.90;;;;;;4994490;28;20054;-78
2022/05/02 06:29:13;;;;;;;15.88;11.77;;;9.10;99.90;;;;;;4994178;28;20070;-79
2022/05/02 06:31:44;;;;;;;15.68;11.90;;;9.10;99.90;;;;;;4994265;28;20133;-78
2022/05/02 06:34:14;;;;;;;17.58;12.07;;;9.10;99.90;;;;;;4994487;28;20439;-78
2022/05/02 06:37:11;;;;;;;15.85;11.52;;;9.20;99.90;;;;;;4994614;28;20057;-78
2022/05/02 06:39:59;;;;;;;13.93;10.23;;;9.40;99.90;;;;;;4994294;28;20137;-77
2022/05/02 06:42:31;;;;;;;13.35;9.95;;;9.60;99.90;;;;;;4994201;28;20082;-78
2022/05/02 06:45:29;;;;;;;13.48;9.50;;;9.70;99.90;;;;;;4994670;28;20404;-78
2022/05/02 06:48:40;;;;;;;13.27;9.93;;;9.80;99.90;;;;;;4993683;28;20086;-79
2022/05/02 06:51:29;;;;;;;15.00;10.50;;;9.80;99.90;;;;;;4980268;28;20046;-77
2022/05/02 06:54:38;;;;;;;14.70;11.15;;;9.80;99.90;;;;;;4994659;28;20097;-78
2022/05/02 06:57:17;;;;;;;14.18;11.07;;;9.80;99.90;;;;;;4994506;28;20145;-79
2022/05/02 06:59:53;;;;;;;13.88;10.13;;;9.90;99.90;;;;;;4994329;28;20133;-80
2022/05/02 07:03:08;;;;;;;14.48;9.98;;;10.00;99.90;;;;;;4994245;28;20116;-78
2022/05/02 07:05:47;;;;;;;15.18;10.77;;;10.10;99.90;;;;;;4993915;28;20053;-78
2022/05/02 07:08:24;;;;;;;12.73;10.00;;;10.20;99.90;;;;;;4994106;28;20532;-77
2022/05/02 07:10:56;;;;;;;15.15;10.38;;;10.20;99.90;;;;;;4995247;28;20400;-78
2022/05/02 07:13:43;;;;;;;15.73;11.35;;;10.30;99.90;;;;;;4995307;28;20086;-77
2022/05/02 07:16:22;;;;;;;13.77;10.27;;;10.30;99.90;;;;;;4994376;28;20177;-78
2022/05/02 07:19:08;;;;;;;12.50;8.80;;;10.50;99.90;;;;;;4993966;28;20054;-78
2022/05/02 07:21:46;;;;;;;13.65;10.77;;;10.60;99.90;;;;;;4993408;28;20054;-77
2022/05/02 07:24:45;;;;;;;15.98;11.05;;;10.60;99.90;;;;;;4993352;28;20042;-79
2022/05/02 07:27:24;;;;;;;15.82;11.00;;;10.70;99.90;;;;;;4993247;28;20077;-79
2022/05/02 07:29:52;;;;;;;12.98;10.30;;;10.70;99.90;;;;;;4985961;28;20078;-78
2022/05/02 07:32:24;;;;;;;13.88;11.13;;;10.80;99.90;;;;;;4993182;28;20057;-78
2022/05/02 07:34:56;;;;;;;17.90;13.02;;;10.90;99.90;;;;;;4993254;28;20050;-78
2022/05/02 07:37:24;;;;;;;17.77;13.13;;;10.90;99.90;;;;;;4993157;28;20073;-78
2022/05/02 07:39:53;;;;;;;14.25;11.57;;;10.80;99.90;;;;;;4993103;28;20073;-78
2022/05/02 07:42:21;;;;;;;14.00;10.38;;;11.00;99.90;;;;;;4992139;28;20132;-80
2022/05/02 07:44:51;;;;;;;15.38;11.00;;;11.10;99.90;;;;;;4993035;28;20552;-78
2022/05/02 07:47:19;;;;;;;15.82;10.20;;;11.10;99.90;;;;;;4993059;28;20105;-78
2022/05/02 07:49:49;;;;;;;16.05;12.20;;;11.20;99.90;;;;;;4985006;28;20563;-80
2022/05/02 07:52:22;;;;;;;15.57;11.85;;;11.20;99.90;;;;;;4993014;28;20054;-78
2022/05/02 07:54:52;;;;;;;14.85;12.05;;;11.30;99.90;;;;;;4992718;28;20365;-78
2022/05/02 07:57:23;;;;;;;14.50;10.68;;;11.40;99.90;;;;;;4993358;28;20408;-77
2022/05/02 07:59:53;;;;;;;13.38;10.20;;;11.50;99.90;;;;;;4992752;28;20053;-78
2022/05/02 08:02:20;;;;;;;13.90;9.52;;;11.50;99.90;;;;;;4992637;28;20538;-76
2022/05/02 08:04:49;;;;;;;12.75;9.50;;;11.60;99.90;;;;;;4992895;28;20090;-78
2022/05/02 08:07:24;;;;;;;15.98;12.80;;;11.60;99.90;;;;;;4992668;28;20058;-76
2022/05/02 08:10:39;;;;;;;14.00;10.95;;;11.70;99.90;;;;;;4992638;28;20407;-78
2022/05/02 08:13:22;;;;;;;13.57;10.15;;;11.70;99.90;;;;;;4967807;28;20137;-78
2022/05/02 08:15:58;;;;;;;14.95;11.35;;;11.80;99.90;;;;;;4992672;28;20101;-79
2022/05/02 08:18:54;;;;;;;15.73;11.95;;;11.80;99.90;;;;;;4992859;28;20117;-79
2022/05/02 08:21:27;;;;;;;13.55;10.48;;;11.90;99.90;;;;;;4992610;28;20046;-78
2022/05/02 08:27:20;;;;;;;12.70;9.98;;;12.00;99.90;;;;;;4987168;28;20148;-78
2022/05/02 08:30:08;;;;;;;17.67;11.45;;;12.10;99.90;;;;;;4992727;28;20070;-78
2022/05/02 08:32:45;;;;;;;13.88;10.25;;;12.10;99.90;;;;;;4992661;28;20074;-78
2022/05/02 08:35:16;;;;;;;13.35;9.95;;;12.30;99.90;;;;;;4992229;28;20420;-79
2022/05/02 08:38:40;;;;;;;11.65;8.75;;;12.50;99.90;;;;;;4992569;28;20133;-79
2022/05/02 08:42:13;;;;;;;12.20;8.90;;;12.60;99.90;;;;;;4979822;28;20078;-78
2022/05/02 08:45:44;;;;;;;13.63;9.73;;;12.50;99.90;;;;;;4987006;28;20078;-78
2022/05/02 08:52:41;;;;;;;14.95;11.07;;;12.90;99.90;;;;;;4992387;28;20077;-78
2022/05/02 08:55:40;;;;;;;13.65;10.48;;;13.00;99.90;;;;;;4978835;28;20043;-78
2022/05/02 08:58:47;;;;;;;14.80;9.90;;;13.00;99.90;;;;;;4996214;28;20042;-79
2022/05/02 09:01:59;;;;;;;15.32;10.88;;;13.10;99.90;;;;;;4995820;28;20058;-79
2022/05/02 09:05:10;;;;;;;13.13;10.07;;;13.10;99.90;;;;;;4991496;28;20077;-78
2022/05/02 09:08:36;;;;;;;11.77;9.57;;;13.40;99.90;;;;;;4995958;28;20417;-79
2022/05/02 09:11:31;;;;;;;13.18;9.88;;;13.40;99.90;;;;;;4995761;28;20503;-77
2022/05/02 09:14:57;;;;;;;12.15;9.20;;;13.50;99.90;;;;;;4989351;28;20078;-79
2022/05/02 09:18:24;;;;;;;12.23;8.10;;;13.60;99.90;;;;;;4996013;28;20214;-77
2022/05/02 09:20:58;;;;;;;11.23;8.35;;;13.70;99.70;;;;;;4996092;28;20141;-77
2022/05/02 09:24:25;;;;;;;11.52;8.48;;;13.70;99.90;;;;;;4995575;28;20504;-79
2022/05/02 09:27:15;;;;;;;12.85;9.30;;;13.90;99.90;;;;;;4988514;28;20376;-78
2022/05/02 09:30:47;;;;;;;12.05;9.05;;;13.80;99.00;;;;;;4995647;28;20100;-79
2022/05/02 09:33:39;;;;;;;12.73;9.82;;;14.00;99.30;;;;;;4995563;28;20104;-78
2022/05/02 09:36:26;;;;;;;13.00;8.88;;;14.10;99.50;;;;;;4995365;28;20092;-78
2022/05/02 09:39:09;;;;;;;11.00;7.93;;;14.40;99.70;;;;;;4995472;28;20484;-80
2022/05/02 09:42:09;;;;;;;10.75;7.85;;;14.40;99.60;;;;;;4995389;28;20133;-78
2022/05/02 09:51:41;;;;;;;9.95;7.85;;;14.50;99.20;;;;;;4994855;28;20046;-78
2022/05/02 09:57:31;;;;;;;9.88;6.95;;;14.70;99.10;;;;;;4995068;28;20514;-79
2022/05/02 10:02:52;;;;;;;11.25;8.05;;;14.90;97.90;;;;;;4994677;28;20518;-80
2022/05/02 10:05:29;;;;;;;9.98;6.72;;;15.00;97.70;;;;;;4993961;28;20060;-79
2022/05/02 10:08:04;;;;;;;9.10;6.25;;;15.00;97.90;;;;;;4995005;28;20130;-79
2022/05/02 10:10:41;;;;;;;8.02;6.55;;;15.10;97.40;;;;;;4994707;28;20130;-78
2022/05/02 10:13:23;;;;;;;9.38;6.55;;;15.10;97.60;;;;;;4994686;28;20132;-80
2022/05/02 10:16:12;;;;;;;10.18;7.97;;;15.20;97.30;;;;;;4994728;28;20595;-80
2022/05/02 10:19:01;;;;;;;8.65;6.70;;;15.10;96.30;;;;;;4994573;28;20092;-80
2022/05/02 10:21:53;;;;;;;8.88;6.03;;;15.20;96.70;;;;;;4994500;28;20046;-80
2022/05/02 10:24:44;;;;;;;10.02;7.63;;;15.30;96.30;;;;;;4994472;28;20054;-77
2022/05/02 10:27:27;;;;;;;8.60;7.00;;;15.30;95.60;;;;;;4994604;28;20050;-79
2022/05/02 10:30:11;;;;;;;9.40;6.45;;;15.40;96.40;;;;;;4994409;28;20081;-78
2022/05/02 10:32:56;;;;;;;11.70;8.48;;;15.60;96.70;;;;;;4994351;28;20043;-80
2022/05/02 10:35:26;;;;;;;9.80;7.15;;;15.50;95.80;;;;;;4994616;28;20054;-80
2022/05/02 10:38:00;;;;;;;10.35;7.63;;;15.40;95.90;;;;;;4994121;28;20496;-78
2022/05/02 10:40:38;;;;;;;8.52;6.57;;;15.50;95.30;;;;;;4994470;28;20057;-78
2022/05/02 10:43:08;;;;;;;8.00;6.13;;;15.50;95.30;;;;;;4994062;28;20133;-79
2022/05/02 10:45:37;;;;;;;9.63;7.32;;;15.50;94.50;;;;;;4993983;28;20133;-79
2022/05/02 10:48:15;;;;;;;10.25;6.35;;;15.40;94.40;;;;;;4994072;28;20137;-79
2022/05/02 10:50:51;;;;;;;8.20;5.55;;;15.50;94.90;;;;;;4993977;28;20043;-80
2022/05/02 10:53:58;;;;;;;6.97;5.35;;;15.60;94.60;;;;;;4993871;28;20500;-79
2022/05/02 10:56:35;;;;;;;10.02;8.05;;;15.80;95.00;;;;;;4963763;28;20054;-79
2022/05/02 10:59:05;;;;;;;10.68;7.55;;;15.70;93.90;;;;;;4994636;28;20054;-78
2022/05/02 11:02:23;;;;;;;9.20;6.65;;;15.80;93.80;;;;;;4993954;28;20516;-81
2022/05/02 11:05:09;;;;;;;9.35;7.50;;;16.10;93.90;;;;;;4994472;28;20301;-79
2022/05/02 11:07:47;;;;;;;9.43;7.07;;;16.30;94.80;;;;;;4993669;28;20054;-79
2022/05/02 11:10:20;;;;;;;7.90;6.07;;;16.30;94.00;;;;;;4993789;28;20070;-80
2022/05/02 11:12:53;;;;;;;9.07;6.63;;;16.30;94.00;;;;;;4994230;28;20081;-79
2022/05/02 11:15:25;;;;;;;7.70;5.90;;;16.30;92.70;;;;;;4994168;28;20058;-78
2022/05/02 11:18:08;;;;;;;7.30;5.43;;;16.30;93.30;;;;;;4993878;28;20128;-78
2022/05/02 11:20:48;;;;;;;8.65;5.70;;;16.30;93.30;;;;;;4993565;28;20495;-79
2022/05/02 11:23:49;;;;;;;6.82;5.28;;;16.50;92.60;;;;;;4993425;28;20050;-79
2022/05/02 11:26:27;;;;;;;10.02;7.25;;;16.60;91.90;;;;;;4993589;28;20056;-79
2022/05/02 11:29:17;;;;;;;7.88;6.10;;;16.70;92.60;;;;;;4993518;28;20061;-78
2022/05/02 11:31:54;;;;;;;8.38;6.80;;;16.70;91.80;;;;;;4993943;28;20416;-78
2022/05/02 11:34:38;;;;;;;8.48;6.38;;;16.80;91.90;;;;;;4993537;28;20053;-78
2022/05/02 11:37:11;;;;;;;6.82;5.50;;;17.00;92.60;;;;;;4993557;28;20058;-77
2022/05/02 11:39:50;;;;;;;8.20;5.93;;;17.10;92.00;;;;;;4993373;28;20074;-78
2022/05/02 11:42:22;;;;;;;7.25;5.80;;;17.10;90.20;;;;;;4993609;28;20134;-79
2022/05/02 11:45:03;;;;;;;7.45;5.25;;;17.30;89.00;;;;;;4993385;28;20100;-78
2022/05/02 11:47:54;;;;;;;6.97;5.00;;;17.40;89.00;;;;;;4993446;28;20137;-78
2022/05/02 11:50:24;;;;;;;7.18;5.30;;;17.40;89.10;;;;;;4993406;28;20050;-79
2022/05/02 11:52:55;;;;;;;6.20;4.00;;;17.40;86.90;;;;;;4993262;28;20085;-80
2022/05/02 11:55:33;;;;;;;4.75;3.50;;;17.60;86.70;;;;;;4993293;28;20100;-81
2022/05/02 11:58:08;;;;;;;4.72;3.30;;;17.80;84.40;;;;;;4993139;28;20077;-79
2022/05/02 12:00:36;;;;;;;;;;;18.10;86.20;;;;;;4993291;28;20050;-80
2022/05/02 12:03:12;;;;;;;5.00;3.30;;;18.10;83.00;;;;;;5007048;28;19928;-79
2022/05/02 12:05:42;;;;;;;4.30;2.92;;;18.10;79.90;;;;;;5012827;28;20141;-79
2022/05/02 12:08:11;;;;;;;4.32;2.90;;;18.20;79.50;;;;;;5012659;28;20129;-78
2022/05/02 12:10:41;;;;;;;4.07;2.67;;;18.30;79.60;;;;;;5012462;28;20132;-78
2022/05/02 12:13:12;;;;;;;4.10;2.90;;;18.40;78.40;;;;;;5012396;28;20492;-80
2022/05/02 12:16:00;;;;;;;3.90;2.60;;;18.50;79.40;;;;;;5012789;28;20070;-81
2022/05/02 12:18:44;;;;;;;4.00;2.70;;;18.90;78.40;;;;;;5012528;28;20554;-80
2022/05/02 12:21:17;;;;;;;3.97;2.55;;;18.80;74.40;;;;;;5012556;28;20054;-78
2022/05/02 12:23:45;;;;;;;5.10;2.80;;;19.00;74.20;;;;;;5012557;28;20136;-79
2022/05/02 12:26:20;;;;;;;4.82;2.85;;;19.10;73.80;;;;;;5012348;28;20139;-78
2022/05/02 12:28:51;;;;;;;4.45;2.83;;;19.10;75.30;;;;;;5014751;28;20137;-80
2022/05/02 12:31:22;;;;;;;3.92;2.63;;;19.00;74.30;;;;;;5016363;28;20061;-81
2022/05/02 12:33:56;;;;;;;5.25;2.75;;;18.90;72.70;;;;;;5016350;28;20084;-80
2022/05/02 12:36:27;;;;;;;4.85;3.08;;;19.00;74.10;;;;;;5016385;28;20133;-79
2022/05/02 12:39:02;;;;;;;3.80;2.55;;;19.10;72.00;;;;;;5016222;28;20045;-78
2022/05/02 12:41:32;;;;;;;4.03;2.70;;;19.20;72.70;;;;;;5016373;28;20050;-79
2022/05/02 12:44:09;;;;;;;3.75;2.45;;;19.20;72.10;;;;;;5016186;28;20145;-80
2022/05/02 12:46:40;;;;;;;4.38;2.72;;;19.50;71.80;;;;;;5015960;28;20468;-80
2022/05/02 12:49:12;;;;;;;4.05;2.70;;;19.60;68.80;;;;;;5016205;28;20074;-80
2022/05/02 12:51:39;;;;;;;5.03;2.70;;;19.40;67.80;;;;;;5016084;28;20507;-81
2022/05/02 12:54:13;;;;;;;4.90;2.30;;;19.30;70.10;;;;;;5015972;28;20137;-79
2022/05/02 13:02:39;;;;;;;3.95;2.10;;;18.80;71.40;;;;;;5015607;28;20060;-79
2022/05/02 13:05:09;;;;;;;4.20;2.42;;;19.00;71.80;;;;;;5016104;28;20447;-80
2022/05/02 13:07:44;;;;;;;3.88;2.15;;;19.10;73.80;;;;;;5016277;28;20128;-78
2022/05/02 13:10:21;;;;;;;4.40;2.50;;;19.00;73.10;;;;;;5016115;28;20057;-79
2022/05/02 13:13:00;;;;;;;4.18;2.47;;;19.00;71.50;;;;;;5015660;28;20046;-79
2022/05/02 13:15:32;;;;;;;4.15;2.40;;;19.40;71.00;;;;;;5015513;28;20562;-79
2022/05/02 13:18:01;;;;;;;4.05;2.55;;;19.80;69.30;;;;;;5016024;28;20531;-78
2022/05/02 13:20:31;;;;;;;3.58;2.40;;;20.10;69.60;;;;;;5015677;28;20050;-77
2022/05/02 13:23:03;;;;;;;3.28;2.00;;;20.10;67.90;;;;;;5015392;28;20049;-78
2022/05/02 13:26:10;;;;;;;3.67;2.30;;;20.60;67.00;;;;;;5015672;28;20045;-77
2022/05/02 13:28:51;;;;;;;3.78;2.20;;;20.40;66.00;;;;;;5015335;28;20453;-80
2022/05/02 13:31:27;;;;;;;4.60;2.42;;;20.30;67.60;;;;;;5015501;28;20045;-78
2022/05/02 13:33:59;;;;;;;3.45;2.20;;;20.80;65.50;;;;;;5015100;28;20483;-79
2022/05/02 13:36:27;;;;;;;3.78;2.08;;;20.70;66.20;;;;;;5015504;28;20053;-78
2022/05/02 13:39:09;;;;;;;5.45;2.53;;;20.90;65.30;;;;;;5014424;28;20133;-80
2022/05/02 13:41:48;;;;;;;3.88;2.25;;;20.60;65.90;;;;;;5014944;28;20447;-78
2022/05/02 13:44:29;;;;;;;5.32;2.22;;;20.70;66.60;;;;;;5014938;28;20049;-79
2022/05/02 13:47:11;;;;;;;3.65;2.35;;;21.20;67.10;;;;;;5014696;28;20049;-77
2022/05/02 13:49:57;;;;;;;3.53;2.40;;;21.60;63.30;;;;;;5015005;28;20128;-78
2022/05/02 13:52:46;;;;;;;3.58;2.20;;;21.30;64.60;;;;;;5014795;28;20124;-78
2022/05/02 13:55:21;;;;;;;4.22;2.30;;;21.20;64.30;;;;;;5014658;28;20108;-77
2022/05/02 13:58:01;;;;;;;3.95;2.30;;;21.20;62.20;;;;;;5015009;28;20056;-79
2022/05/02 14:03:42;;;;;;;3.53;2.28;;;20.60;64.60;;;;;;5013317;28;20049;-79
2022/05/02 14:06:12;;;;;;;3.80;2.50;;;21.00;64.80;;;;;;5014561;28;20133;-80
2022/05/02 14:08:44;;;;;;;4.03;2.58;;;20.70;64.10;;;;;;5014883;28;20049;-81